createdAt,value
2019-06-15T00:00:29.947Z,19.03
2019-06-15T00:02:59.508Z,18.98
2019-06-15T00:05:29.066Z,18.97
2019-06-15T00:07:58.631Z,18.93
2019-06-15T00:10:28.114Z,18.89
2019-06-15T00:12:57.695Z,18.97
2019-06-15T00:15:27.249Z,19.01
2019-06-15T00:17:56.765Z,18.97
2019-06-15T00:20:26.273Z,18.93
2019-06-15T00:22:55.754Z,18.93
2019-06-15T00:25:25.329Z,18.89
2019-06-15T00:27:54.831Z,18.88
2019-06-15T00:30:24.545Z,18.86
2019-06-15T00:32:54.066Z,18.87
2019-06-15T00:35:23.781Z,18.83
2019-06-15T00:37:57.258Z,18.86
2019-06-15T00:40:26.795Z,18.80
2019-06-15T00:42:59.036Z,18.72
2019-06-15T00:45:28.485Z,18.62
2019-06-15T00:47:58.001Z,18.54
2019-06-15T00:50:27.462Z,18.45
2019-06-15T00:52:56.969Z,18.46
2019-06-15T00:55:26.489Z,18.45
2019-06-15T00:57:56.029Z,18.43
2019-06-15T01:00:25.670Z,18.46
2019-06-15T01:02:55.193Z,18.46
2019-06-15T01:05:24.771Z,18.42
2019-06-15T01:07:54.269Z,18.43
2019-06-15T01:10:24.607Z,18.45
2019-06-15T01:12:54.115Z,18.49
2019-06-15T01:15:23.742Z,18.49
2019-06-15T01:17:53.276Z,18.52
2019-06-15T01:20:23.092Z,18.51
2019-06-15T01:22:52.664Z,18.53
2019-06-15T01:25:22.319Z,18.57
2019-06-15T01:27:51.842Z,18.58
2019-06-15T01:30:22.377Z,18.59
2019-06-15T01:32:51.866Z,18.66
2019-06-15T01:35:21.453Z,18.62
2019-06-15T01:37:50.925Z,18.60
2019-06-15T01:40:20.677Z,18.59
2019-06-15T01:42:50.270Z,18.58
2019-06-15T01:45:26.448Z,18.61
2019-06-15T01:47:56.630Z,18.62
2019-06-15T01:50:26.299Z,18.60
2019-06-15T01:52:55.780Z,18.54
2019-06-15T01:55:25.291Z,18.53
2019-06-15T01:57:54.787Z,18.60
2019-06-15T02:00:31.947Z,18.68
2019-06-15T02:03:01.527Z,18.80
2019-06-15T02:05:31.099Z,18.89
2019-06-15T02:08:00.574Z,18.81
2019-06-15T02:10:31.585Z,18.71
2019-06-15T02:13:02.011Z,18.63
2019-06-15T02:15:31.790Z,18.59
2019-06-15T02:18:01.281Z,18.69
2019-06-15T02:20:30.842Z,18.69
2019-06-15T02:23:00.336Z,18.75
2019-06-15T02:25:36.318Z,18.72
2019-06-15T02:28:03.600Z,18.83
2019-06-15T02:30:35.049Z,18.86
2019-06-15T02:33:04.889Z,18.80
2019-06-15T02:35:34.639Z,18.82
2019-06-15T02:38:04.370Z,18.74
2019-06-15T02:40:34.035Z,18.65
2019-06-15T02:43:03.740Z,18.80
2019-06-15T02:45:33.225Z,18.78
2019-06-15T02:48:02.805Z,18.78
2019-06-15T02:50:33.240Z,18.65
2019-06-15T02:53:02.745Z,18.48
2019-06-15T02:55:32.310Z,18.42
2019-06-15T02:58:01.848Z,18.30
2019-06-15T03:00:44.819Z,18.20
2019-06-15T03:03:14.419Z,18.14
2019-06-15T03:05:43.975Z,18.07
2019-06-15T03:08:13.543Z,18.03
2019-06-15T03:10:43.061Z,18.01
2019-06-15T03:13:13.601Z,17.98
2019-06-15T03:15:43.107Z,18.02
2019-06-15T03:18:12.603Z,18.05
2019-06-15T03:20:42.188Z,18.02
2019-06-15T03:23:11.666Z,18.01
2019-06-15T03:25:41.248Z,18.11
2019-06-15T03:28:10.746Z,18.14
2019-06-15T03:30:41.878Z,18.19
2019-06-15T03:33:11.524Z,18.20
2019-06-15T03:35:41.078Z,18.24
2019-06-15T03:38:10.670Z,18.23
2019-06-15T03:40:41.618Z,18.32
2019-06-15T03:43:11.445Z,18.32
2019-06-15T03:45:40.951Z,18.38
2019-06-15T03:48:10.443Z,18.50
2019-06-15T03:50:39.952Z,18.43
2019-06-15T03:53:09.442Z,18.37
2019-06-15T03:55:40.575Z,18.33
2019-06-15T03:58:10.113Z,18.50
2019-06-15T04:00:51.748Z,18.41
2019-06-15T04:03:21.235Z,18.61
2019-06-15T04:05:50.748Z,18.46
2019-06-15T04:08:20.233Z,18.57
2019-06-15T04:10:49.770Z,18.61
2019-06-15T04:13:19.357Z,18.47
2019-06-15T04:15:48.905Z,18.51
2019-06-15T04:18:18.391Z,18.58
2019-06-15T04:20:47.901Z,18.71
2019-06-15T04:23:17.372Z,18.58
2019-06-15T04:25:46.906Z,18.39
2019-06-15T04:28:16.419Z,18.50
2019-06-15T04:30:45.897Z,18.66
2019-06-15T04:33:15.404Z,18.74
2019-06-15T04:35:44.960Z,18.51
2019-06-15T04:38:14.548Z,18.61
2019-06-15T04:40:44.116Z,18.39
2019-06-15T04:43:13.624Z,18.48
2019-06-15T04:45:43.180Z,18.48
2019-06-15T04:48:12.835Z,18.55
2019-06-15T04:50:42.371Z,18.70
2019-06-15T04:53:14.786Z,18.48
2019-06-15T04:55:43.182Z,18.68
2019-06-15T04:58:12.694Z,18.46
2019-06-15T05:00:42.286Z,18.72
2019-06-15T05:03:11.888Z,18.48
2019-06-15T05:05:41.387Z,18.40
2019-06-15T05:08:10.911Z,18.32
2019-06-15T05:10:40.976Z,18.54
2019-06-15T05:13:10.553Z,18.47
2019-06-15T05:15:40.048Z,18.58
2019-06-15T05:18:09.605Z,18.56
2019-06-15T05:20:39.238Z,18.50
2019-06-15T05:23:08.991Z,18.40
2019-06-15T05:25:38.485Z,18.40
2019-06-15T05:28:08.071Z,18.20
2019-06-15T05:30:37.576Z,18.05
2019-06-15T05:33:07.146Z,18.34
2019-06-15T05:35:36.660Z,18.39
2019-06-15T05:38:06.244Z,18.13
2019-06-15T05:40:36.095Z,18.19
2019-06-15T05:43:05.586Z,18.10
2019-06-15T05:45:35.085Z,18.23
2019-06-15T05:48:04.736Z,17.99
2019-06-15T05:50:34.381Z,18.03
2019-06-15T05:53:03.879Z,18.05
2019-06-15T05:55:33.395Z,18.23
2019-06-15T05:58:02.951Z,18.28
2019-06-15T06:00:32.512Z,18.25
2019-06-15T06:03:02.018Z,18.32
2019-06-15T06:05:31.601Z,18.38
2019-06-15T06:08:01.126Z,18.26
2019-06-15T06:10:30.609Z,18.46
2019-06-15T06:13:00.110Z,18.42
2019-06-15T06:15:29.618Z,18.53
2019-06-15T06:17:59.219Z,18.69
2019-06-15T06:20:28.802Z,18.65
2019-06-15T06:22:58.375Z,19.07
2019-06-15T06:25:27.874Z,19.52
2019-06-15T06:27:57.371Z,19.84
2019-06-15T06:30:30.132Z,20.35
2019-06-15T06:32:58.241Z,20.34
2019-06-15T06:35:27.833Z,20.81
2019-06-15T06:37:57.420Z,20.83
2019-06-15T06:40:26.932Z,20.85
2019-06-15T06:42:56.498Z,20.74
2019-06-15T06:45:26.310Z,20.96
2019-06-15T06:47:55.796Z,20.81
2019-06-15T06:50:25.467Z,21.26
2019-06-15T06:52:54.944Z,21.69
2019-06-15T06:55:24.472Z,21.89
2019-06-15T06:57:57.084Z,21.70
2019-06-15T07:00:25.291Z,21.92
2019-06-15T07:02:54.861Z,22.57
2019-06-15T07:05:24.369Z,22.50
2019-06-15T07:07:55.568Z,22.63
2019-06-15T07:10:26.623Z,22.61
2019-06-15T07:13:00.262Z,22.53
2019-06-15T07:15:29.783Z,22.63
2019-06-15T07:18:02.367Z,22.59
2019-06-15T07:20:31.879Z,22.97
2019-06-15T07:23:01.640Z,22.78
2019-06-15T07:25:31.602Z,21.85
2019-06-15T07:28:07.982Z,21.65
2019-06-15T07:30:34.253Z,22.25
2019-06-15T07:33:03.855Z,22.98
2019-06-15T07:35:33.405Z,23.05
2019-06-15T07:38:03.065Z,23.69
2019-06-15T07:40:32.558Z,23.81
2019-06-15T07:43:02.057Z,23.38
2019-06-15T07:45:31.644Z,23.60
2019-06-15T07:48:01.152Z,23.24
2019-06-15T07:50:30.671Z,22.92
2019-06-15T07:53:00.186Z,22.33
2019-06-15T07:55:29.777Z,21.84
2019-06-15T07:57:59.253Z,21.87
2019-06-15T08:00:28.912Z,21.95
2019-06-15T08:02:58.486Z,21.48
2019-06-15T08:05:28.012Z,21.28
2019-06-15T08:07:57.578Z,21.18
2019-06-15T08:10:27.123Z,20.86
2019-06-15T08:12:56.720Z,20.71
2019-06-15T08:15:26.223Z,21.49
2019-06-15T08:17:55.719Z,21.42
2019-06-15T08:20:35.425Z,21.51
2019-06-15T08:23:05.838Z,22.28
2019-06-15T08:25:36.393Z,22.25
2019-06-15T08:28:06.116Z,22.03
2019-06-15T08:30:43.893Z,23.03
2019-06-15T08:33:13.596Z,23.47
2019-06-15T08:35:43.307Z,24.70
2019-06-15T08:38:12.888Z,24.41
2019-06-15T08:40:42.577Z,24.65
2019-06-15T08:43:14.883Z,23.98
2019-06-15T08:45:44.520Z,24.45
2019-06-15T08:48:14.031Z,24.01
2019-06-15T08:50:43.551Z,22.81
2019-06-15T08:53:13.112Z,22.47
2019-06-15T08:55:42.689Z,22.76
2019-06-15T08:58:12.206Z,22.02
2019-06-15T09:00:41.781Z,22.01
2019-06-15T09:03:11.724Z,21.96
2019-06-15T09:05:41.199Z,21.30
2019-06-15T09:08:10.785Z,21.57
2019-06-15T09:10:40.269Z,21.66
2019-06-15T09:13:09.764Z,21.56
2019-06-15T09:15:46.728Z,21.34
2019-06-15T09:18:17.382Z,21.02
2019-06-15T09:20:47.622Z,21.15
2019-06-15T09:23:18.229Z,21.87
2019-06-15T09:25:47.921Z,22.72
2019-06-15T09:28:17.415Z,22.85
2019-06-15T09:30:47.811Z,24.47
2019-06-15T09:33:17.595Z,24.78
2019-06-15T09:35:47.132Z,24.21
2019-06-15T09:38:16.650Z,25.63
2019-06-15T09:40:46.219Z,26.26
2019-06-15T09:43:15.858Z,26.57
2019-06-15T09:45:45.349Z,26.86
2019-06-15T09:48:15.010Z,27.28
2019-06-15T09:50:44.582Z,26.96
2019-06-15T09:53:14.165Z,27.19
2019-06-15T09:55:43.710Z,27.59
2019-06-15T09:58:13.315Z,26.91
2019-06-15T10:00:42.992Z,26.76
2019-06-15T10:03:12.660Z,28.93
2019-06-15T10:05:42.206Z,27.70
2019-06-15T10:08:11.744Z,28.03
2019-06-15T10:10:41.331Z,28.12
2019-06-15T10:13:10.894Z,28.59
2019-06-15T10:15:40.509Z,27.58
2019-06-15T10:18:10.018Z,27.53
2019-06-15T10:20:39.567Z,26.85
2019-06-15T10:23:09.073Z,27.18
2019-06-15T10:25:38.571Z,27.33
2019-06-15T10:28:08.149Z,27.80
2019-06-15T10:30:37.699Z,27.93
2019-06-15T10:33:07.183Z,27.97
2019-06-15T10:35:36.701Z,28.47
2019-06-15T10:38:06.271Z,28.34
2019-06-15T10:40:35.833Z,28.39
2019-06-15T10:43:05.408Z,27.61
2019-06-15T10:45:35.179Z,28.08
2019-06-15T10:48:04.713Z,27.96
2019-06-15T10:50:34.267Z,27.97
2019-06-15T10:53:03.753Z,29.28
2019-06-15T10:55:33.251Z,27.40
2019-06-15T10:58:02.742Z,27.54
2019-06-15T11:00:32.322Z,27.96
2019-06-15T11:03:01.899Z,27.16
2019-06-15T11:05:31.425Z,26.39
2019-06-15T11:08:00.924Z,26.72
2019-06-15T11:10:49.838Z,25.96
2019-06-15T11:13:19.348Z,25.83
2019-06-15T11:15:49.023Z,25.21
2019-06-15T11:18:18.615Z,25.67
2019-06-15T11:20:48.434Z,25.66
2019-06-15T11:23:18.256Z,26.27
2019-06-15T11:25:47.749Z,27.12
2019-06-15T11:28:17.232Z,27.57
2019-06-15T11:30:46.716Z,27.19
2019-06-15T11:33:16.234Z,27.07
2019-06-15T11:35:46.978Z,26.49
2019-06-15T11:38:16.630Z,26.18
2019-06-15T11:40:46.174Z,25.53
2019-06-15T11:43:15.687Z,25.59
2019-06-15T11:45:45.843Z,25.62
2019-06-15T11:48:15.355Z,25.01
2019-06-15T11:50:44.896Z,24.61
2019-06-15T11:53:14.449Z,23.91
2019-06-15T11:55:43.938Z,23.50
2019-06-15T11:58:13.541Z,23.21
2019-06-15T12:00:43.164Z,23.23
2019-06-15T12:03:12.894Z,23.28
2019-06-15T12:05:42.472Z,23.11
2019-06-15T12:08:12.459Z,23.54
2019-06-15T12:10:41.980Z,24.05
2019-06-15T12:13:15.080Z,24.87
2019-06-15T12:15:44.737Z,26.16
2019-06-15T12:18:14.243Z,27.25
2019-06-15T12:20:44.370Z,28.48
2019-06-15T12:23:13.876Z,28.41
2019-06-15T12:25:43.378Z,28.87
2019-06-15T12:28:12.870Z,28.68
2019-06-15T12:30:47.347Z,29.75
2019-06-15T12:33:14.425Z,28.43
2019-06-15T12:35:43.911Z,29.01
2019-06-15T12:38:13.490Z,29.10
2019-06-15T12:40:42.993Z,29.84
2019-06-15T12:43:12.507Z,29.86
2019-06-15T12:45:42.465Z,30.56
2019-06-15T12:48:15.557Z,30.16
2019-06-15T12:50:45.115Z,30.11
2019-06-15T12:53:14.586Z,28.65
2019-06-15T12:55:44.069Z,27.08
2019-06-15T12:58:13.741Z,26.32
2019-06-15T13:00:43.264Z,25.09
2019-06-15T13:03:12.835Z,24.65
2019-06-15T13:05:42.423Z,24.81
2019-06-15T13:08:11.989Z,27.07
2019-06-15T13:10:41.501Z,27.99
2019-06-15T13:13:11.053Z,28.05
2019-06-15T13:15:42.259Z,28.32
2019-06-15T13:18:11.907Z,27.83
2019-06-15T13:20:41.453Z,27.74
2019-06-15T13:23:11.020Z,28.13
2019-06-15T13:25:40.546Z,28.12
2019-06-15T13:28:10.046Z,29.59
2019-06-15T13:30:39.549Z,29.30
2019-06-15T13:33:09.271Z,29.77
2019-06-15T13:35:38.941Z,29.16
2019-06-15T13:38:08.475Z,29.27
2019-06-15T13:40:38.226Z,28.28
2019-06-15T13:43:07.725Z,27.59
2019-06-15T13:45:37.216Z,27.91
2019-06-15T13:48:06.817Z,29.23
2019-06-15T13:50:36.322Z,29.83
2019-06-15T13:53:05.870Z,29.58
2019-06-15T13:55:35.380Z,28.39
2019-06-15T13:58:04.963Z,29.45
2019-06-15T14:00:34.443Z,29.12
2019-06-15T14:03:04.011Z,29.01
2019-06-15T14:05:33.536Z,29.63
2019-06-15T14:08:03.020Z,29.04
2019-06-15T14:10:32.551Z,26.75
2019-06-15T14:13:02.032Z,28.47
2019-06-15T14:15:31.539Z,29.03
2019-06-15T14:18:01.029Z,27.69
2019-06-15T14:20:30.571Z,29.36
2019-06-15T14:23:00.170Z,29.62
2019-06-15T14:25:29.731Z,29.51
2019-06-15T14:27:59.280Z,28.67
2019-06-15T14:30:28.930Z,29.51
2019-06-15T14:32:58.480Z,29.12
2019-06-15T14:35:28.006Z,29.13
2019-06-15T14:37:57.520Z,29.73
2019-06-15T14:40:27.298Z,30.50
2019-06-15T14:42:56.825Z,30.30
2019-06-15T14:45:26.418Z,30.60
2019-06-15T14:47:55.916Z,30.84
2019-06-15T14:50:25.546Z,30.55
2019-06-15T14:52:55.151Z,31.26
2019-06-15T14:55:26.264Z,29.48
2019-06-15T14:57:55.989Z,29.08
2019-06-15T15:00:25.607Z,28.85
2019-06-15T15:02:55.972Z,30.63
2019-06-15T15:05:27.355Z,30.63
2019-06-15T15:07:56.939Z,30.60
2019-06-15T15:10:26.811Z,30.45
2019-06-15T15:12:56.752Z,29.98
2019-06-15T15:15:26.437Z,30.47
2019-06-15T15:17:57.759Z,29.62
2019-06-15T15:20:27.391Z,29.20
2019-06-15T15:22:57.026Z,30.61
2019-06-15T15:25:26.598Z,31.02
2019-06-15T15:27:57.195Z,31.87
2019-06-15T15:30:41.310Z,31.81
2019-06-15T15:33:10.921Z,32.28
2019-06-15T15:35:40.427Z,32.14
2019-06-15T15:38:09.950Z,32.17
2019-06-15T15:40:39.528Z,32.95
2019-06-15T15:43:09.121Z,31.50
2019-06-15T15:45:38.641Z,32.63
2019-06-15T15:48:08.142Z,32.31
2019-06-15T15:50:37.732Z,32.15
2019-06-15T15:53:07.369Z,31.99
2019-06-15T15:55:36.986Z,32.51
2019-06-15T15:58:06.904Z,31.96
2019-06-15T16:00:36.958Z,31.68
2019-06-15T16:03:07.290Z,31.73
2019-06-15T16:05:37.442Z,32.66
2019-06-15T16:08:07.084Z,32.64
2019-06-15T16:10:37.442Z,32.59
2019-06-15T16:13:07.174Z,31.64
2019-06-15T16:15:37.367Z,31.36
2019-06-15T16:18:07.253Z,31.61
2019-06-15T16:20:37.251Z,31.03
2019-06-15T16:23:07.716Z,29.54
2019-06-15T16:25:37.556Z,28.74
2019-06-15T16:28:07.418Z,29.09
2019-06-15T16:31:00.363Z,29.34
2019-06-15T16:33:08.562Z,28.69
2019-06-15T16:35:38.097Z,27.96
2019-06-15T16:38:07.863Z,26.93
2019-06-15T16:40:39.349Z,26.20
2019-06-15T16:43:09.575Z,26.47
2019-06-15T16:45:39.309Z,26.57
2019-06-15T16:48:08.954Z,25.51
2019-06-15T16:50:38.535Z,25.12
2019-06-15T16:53:08.185Z,25.14
2019-06-15T16:55:37.821Z,24.54
2019-06-15T16:58:07.836Z,24.90
2019-06-15T17:00:37.481Z,24.87
2019-06-15T17:03:20.956Z,25.08
2019-06-15T17:05:38.403Z,25.29
2019-06-15T17:08:08.003Z,25.47
2019-06-15T17:10:42.232Z,25.47
2019-06-15T17:13:12.341Z,25.33
2019-06-15T17:15:42.076Z,24.96
2019-06-15T17:18:11.706Z,24.87
2019-06-15T17:20:50.969Z,24.62
2019-06-15T17:23:21.049Z,24.52
2019-06-15T17:25:50.863Z,24.28
2019-06-15T17:28:20.542Z,24.27
2019-06-15T17:30:50.262Z,24.20
2019-06-15T17:33:33.340Z,24.34
2019-06-15T17:35:59.042Z,24.15
2019-06-15T17:38:22.285Z,24.13
2019-06-15T17:40:51.818Z,24.23
2019-06-15T17:43:21.443Z,24.39
2019-06-15T17:45:51.858Z,24.21
2019-06-15T17:48:21.443Z,24.20
2019-06-15T17:50:50.977Z,24.25
2019-06-15T17:53:20.515Z,24.17
2019-06-15T17:55:50.275Z,24.35
2019-06-15T17:58:19.956Z,24.50
2019-06-15T18:00:51.142Z,24.22
2019-06-15T18:03:20.680Z,24.28
2019-06-15T18:05:50.370Z,23.98
2019-06-15T18:08:19.937Z,24.02
2019-06-15T18:10:49.448Z,23.86
2019-06-15T18:13:18.963Z,23.98
2019-06-15T18:15:48.506Z,23.84
2019-06-15T18:18:18.074Z,23.86
2019-06-15T18:20:47.706Z,23.53
2019-06-15T18:23:19.578Z,23.38
2019-06-15T18:25:49.221Z,23.44
2019-06-15T18:28:21.713Z,23.45
2019-06-15T18:30:51.312Z,23.25
2019-06-15T18:33:20.911Z,23.19
2019-06-15T18:35:54.734Z,22.98
2019-06-15T18:38:26.073Z,22.97
2019-06-15T18:40:56.253Z,23.07
2019-06-15T18:43:26.282Z,23.02
2019-06-15T18:45:56.797Z,22.84
2019-06-15T18:48:26.674Z,22.82
2019-06-15T18:50:56.210Z,22.69
2019-06-15T18:53:26.873Z,22.50
2019-06-15T18:55:57.100Z,22.41
2019-06-15T18:58:26.553Z,22.34
2019-06-15T19:00:56.072Z,22.18
2019-06-15T19:03:29.013Z,22.02
2019-06-15T19:05:59.130Z,22.33
2019-06-15T19:08:28.906Z,22.07
2019-06-15T19:10:58.469Z,21.97
2019-06-15T19:13:28.292Z,21.96
2019-06-15T19:15:57.792Z,22.06
2019-06-15T19:18:27.385Z,21.95
2019-06-15T19:20:58.571Z,21.99
2019-06-15T19:23:30.291Z,21.90
2019-06-15T19:25:59.965Z,21.65
2019-06-15T19:28:29.555Z,21.57
2019-06-15T19:30:59.059Z,21.50
2019-06-15T19:33:28.632Z,21.77
2019-06-15T19:35:59.494Z,21.91
2019-06-15T19:38:29.258Z,21.97
2019-06-15T19:40:59.228Z,21.95
2019-06-15T19:43:28.831Z,21.89
2019-06-15T19:45:58.577Z,22.03
2019-06-15T19:48:29.971Z,21.96
2019-06-15T19:51:00.088Z,21.69
2019-06-15T19:53:30.243Z,21.65
2019-06-15T19:56:00.579Z,21.66
2019-06-15T19:58:31.175Z,21.62
2019-06-15T20:01:01.522Z,21.64
2019-06-15T20:03:31.851Z,21.54
2019-06-15T20:06:02.073Z,21.75
2019-06-15T20:08:32.283Z,21.68
2019-06-15T20:11:02.009Z,21.62
2019-06-15T20:13:32.044Z,21.62
2019-06-15T20:16:01.627Z,21.25
2019-06-15T20:18:33.842Z,21.07
2019-06-15T20:21:03.304Z,20.86
2019-06-15T20:23:36.769Z,20.62
2019-06-15T20:26:06.628Z,20.48
2019-06-15T20:28:38.934Z,20.35
2019-06-15T20:31:08.480Z,20.24
2019-06-15T20:33:38.079Z,20.14
2019-06-15T20:36:08.249Z,20.07
2019-06-15T20:38:38.497Z,20.03
2019-06-15T20:41:08.096Z,19.99
2019-06-15T20:43:37.701Z,20.01
2019-06-15T20:46:07.388Z,19.98
2019-06-15T20:48:37.179Z,19.98
2019-06-15T20:51:10.228Z,19.99
2019-06-15T20:53:38.164Z,19.94
2019-06-15T20:56:08.318Z,19.88
2019-06-15T20:58:38.290Z,19.92
2019-06-15T21:01:08.418Z,19.94
2019-06-15T21:03:38.007Z,19.91
2019-06-15T21:06:09.230Z,20.02
2019-06-15T21:08:38.927Z,20.23
2019-06-15T21:11:09.252Z,20.28
2019-06-15T21:13:39.265Z,20.17
2019-06-15T21:16:10.605Z,20.06
2019-06-15T21:18:40.344Z,19.94
2019-06-15T21:21:09.912Z,19.79
2019-06-15T21:23:39.876Z,19.76
2019-06-15T21:26:09.987Z,19.57
2019-06-15T21:28:39.559Z,19.34
2019-06-15T21:31:09.788Z,19.26
2019-06-15T21:33:40.754Z,19.17
2019-06-15T21:36:10.361Z,19.17
2019-06-15T21:38:39.935Z,19.23
2019-06-15T21:41:09.568Z,19.30
2019-06-15T21:43:44.299Z,19.38
2019-06-15T21:46:11.006Z,19.43
2019-06-15T21:48:41.857Z,19.50
2019-06-15T21:51:11.403Z,19.60
2019-06-15T21:53:41.915Z,19.66
2019-06-15T21:56:11.559Z,19.76
2019-06-15T21:58:41.209Z,19.68
2019-06-15T22:01:32.899Z,19.68
2019-06-15T22:04:02.945Z,19.77
2019-06-15T22:06:33.413Z,19.74
2019-06-15T22:09:02.986Z,19.81
2019-06-15T22:11:32.561Z,19.79
2019-06-15T22:14:02.146Z,19.87
2019-06-15T22:16:31.654Z,19.85
2019-06-15T22:19:01.189Z,19.91
2019-06-15T22:21:30.864Z,19.96
2019-06-15T22:24:00.424Z,20.03
2019-06-15T22:26:30.025Z,19.91
2019-06-15T22:28:59.606Z,19.86
2019-06-15T22:31:29.277Z,19.85
2019-06-15T22:33:58.941Z,19.81
2019-06-15T22:36:28.813Z,19.75
2019-06-15T22:38:58.309Z,19.85
2019-06-15T22:41:27.835Z,19.81
2019-06-15T22:43:57.428Z,19.86
2019-06-15T22:46:26.944Z,19.77
2019-06-15T22:48:56.510Z,19.67
2019-06-15T22:51:27.610Z,19.52
2019-06-15T22:53:57.381Z,19.53
2019-06-15T22:56:26.895Z,19.33
2019-06-15T22:58:56.962Z,19.23
2019-06-15T23:01:26.887Z,19.07
2019-06-15T23:03:57.151Z,19.01
2019-06-15T23:06:36.960Z,19.02
2019-06-15T23:08:58.189Z,19.19
2019-06-15T23:11:27.717Z,19.20
2019-06-15T23:13:57.685Z,19.00
2019-06-15T23:16:27.528Z,18.87
2019-06-15T23:18:57.508Z,18.89
2019-06-15T23:21:27.121Z,18.69
2019-06-15T23:23:56.606Z,18.57
2019-06-15T23:26:26.347Z,18.54
2019-06-15T23:28:56.567Z,18.56
2019-06-15T23:31:26.284Z,18.76
2019-06-15T23:33:56.220Z,18.75
2019-06-15T23:36:30.527Z,18.79
2019-06-15T23:39:00.091Z,18.62
2019-06-15T23:41:29.648Z,18.56
2019-06-15T23:43:59.234Z,18.35
2019-06-15T23:46:28.884Z,18.26
2019-06-15T23:48:58.372Z,18.14
2019-06-15T23:51:28.046Z,17.95
2019-06-15T23:53:57.543Z,17.80
2019-06-15T23:56:28.024Z,17.71
2019-06-15T23:58:57.531Z,17.63
